Time,TemperatureF,DewpointF,PressureIn,WindDirection,WindDirectionDegrees,WindSpeedMPH,WindSpeedGustMPH,Humidity,HourlyPrecipIn,Conditions,Clouds,dailyrainin,SolarRadiationWatts/m^2,SoftwareType,DateUTC
2013-03-09 00:05:00,40.8,36.6,30.06,NW,308,0.0,2.0,85,0.00,,,0.00,0,Wunderground v.1.15,2013-03-09 08:05:00,
2013-03-09 00:11:00,40.7,36.5,30.06,NW,308,0.0,2.0,85,0.00,,,0.00,0,Wunderground v.1.15,2013-03-09 08:11:00,
2013-03-09 00:17:00,40.5,36.3,30.06,NW,308,0.0,2.0,85,0.00,,,0.00,0,Wunderground v.1.15,2013-03-09 08:17:00,
2013-03-09 00:23:00,40.3,36.1,30.06,NW,308,0.0,2.0,85,0.00,,,0.00,0,Wunderground v.1.15,2013-03-09 08:23:00,
2013-03-09 00:29:00,40.1,36.0,30.06,NW,308,0.0,2.0,85,0.00,,,0.00,0,Wunderground v.1.15,2013-03-09 08:29:00,
2013-03-09 00:35:00,39.9,35.8,30.07,NW,308,0.0,2.0,85,0.00,,,0.00,0,Wunderground v.1.15,2013-03-09 08:35:00,
2013-03-09 00:41:00,39.7,35.6,30.07,NW,308,0.0,2.0,85,0.00,,,0.00,0,Wunderground v.1.15,2013-03-09 08:41:00,
2013-03-09 00:47:00,39.6,35.8,30.08,NW,308,0.0,2.0,86,0.00,,,0.00,0,Wunderground v.1.15,2013-03-09 08:47:00,
2013-03-09 00:53:00,39.4,35.3,30.08,NW,308,0.0,2.0,85,0.00,,,0.00,0,Wunderground v.1.15,2013-03-09 08:53:00,
2013-03-09 00:59:00,39.2,35.4,30.09,NW,308,0.0,2.0,86,0.00,,,0.00,0,Wunderground v.1.15,2013-03-09 08:59:00,
2013-03-09 01:05:00,39.0,35.2,30.09,NW,308,0.0,2.0,86,0.00,,,0.00,0,Wunderground v.1.15,2013-03-09 09:05:00,
2013-03-09 01:11:00,38.7,34.9,30.09,NW,308,0.0,2.0,86,0.00,,,0.00,0,Wunderground v.1.15,2013-03-09 09:11:00,
2013-03-09 01:17:00,38.5,34.7,30.09,NW,308,0.0,2.0,86,0.00,,,0.00,0,Wunderground v.1.15,2013-03-09 09:17:00,
2013-03-09 01:23:00,38.4,34.9,30.09,NW,308,0.0,2.0,87,0.00,,,0.00,0,Wunderground v.1.15,2013-03-09 09:23:00,
2013-03-09 01:29:00,38.2,34.7,30.09,NW,308,0.0,2.0,87,0.00,,,0.00,0,Wunderground v.1.15,2013-03-09 09:29:00,
2013-03-09 01:35:00,38.0,34.5,30.10,NW,308,0.0,2.0,87,0.00,,,0.00,0,Wunderground v.1.15,2013-03-09 09:35:00,
2013-03-09 01:41:00,37.9,34.4,30.10,NW,308,0.0,2.0,87,0.00,,,0.00,0,Wunderground v.1.15,2013-03-09 09:41:00,
2013-03-09 01:47:00,37.8,34.3,30.11,NW,308,0.0,2.0,87,0.00,,,0.00,0,Wunderground v.1.15,2013-03-09 09:47:00,
2013-03-09 01:53:00,37.5,34.0,30.11,NW,308,0.0,2.0,87,0.00,,,0.00,0,Wunderground v.1.15,2013-03-09 09:53:00,
2013-03-09 01:59:00,37.3,34.1,30.11,NW,308,0.0,1.0,88,0.00,,,0.00,0,Wunderground v.1.15,2013-03-09 09:59:00,
2013-03-09 02:05:00,37.2,34.0,30.11,NW,308,0.0,1.0,88,0.00,,,0.00,0,Wunderground v.1.15,2013-03-09 10:05:00,
2013-03-09 02:11:00,37.1,33.9,30.11,NW,308,0.0,1.0,88,0.00,,,0.00,0,Wunderground v.1.15,2013-03-09 10:11:00,
2013-03-09 02:17:00,36.9,33.7,30.11,NW,308,0.0,1.0,88,0.00,,,0.00,0,Wunderground v.1.15,2013-03-09 10:17:00,
2013-03-09 02:23:00,36.8,33.6,30.11,NW,308,0.0,1.0,88,0.00,,,0.00,0,Wunderground v.1.15,2013-03-09 10:23:00,
2013-03-09 02:29:00,36.6,33.4,30.11,NW,308,0.0,1.0,88,0.00,,,0.00,0,Wunderground v.1.15,2013-03-09 10:29:00,
2013-03-09 02:35:00,36.5,33.3,30.11,NW,308,0.0,1.0,88,0.00,,,0.00,0,Wunderground v.1.15,2013-03-09 10:35:00,
2013-03-09 02:41:00,36.3,33.1,30.11,NW,308,0.0,1.0,88,0.00,,,0.00,0,Wunderground v.1.15,2013-03-09 10:41:00,
2013-03-09 02:47:00,36.1,32.9,30.11,NW,308,0.0,1.0,88,0.00,,,0.00,0,Wunderground v.1.15,2013-03-09 10:47:00,
2013-03-09 02:53:00,36.0,32.8,30.11,NW,308,0.0,1.0,88,0.00,,,0.00,0,Wunderground v.1.15,2013-03-09 10:53:00,
2013-03-09 02:59:00,35.8,32.9,30.10,NW,308,0.0,1.0,89,0.00,,,0.00,0,Wunderground v.1.15,2013-03-09 10:59:00,
2013-03-09 03:05:00,35.6,32.7,30.10,NW,308,0.0,1.0,89,0.00,,,0.00,0,Wunderground v.1.15,2013-03-09 11:05:00,
2013-03-09 03:12:00,35.6,32.7,30.10,NW,308,0.0,1.0,89,0.00,,,0.00,0,Wunderground v.1.15,2013-03-09 11:12:00,
2013-03-09 03:18:00,35.5,32.6,30.10,NW,308,0.0,1.0,89,0.00,,,0.00,0,Wunderground v.1.15,2013-03-09 11:18:00,
2013-03-09 03:24:00,35.4,32.5,30.10,NW,308,0.0,1.0,89,0.00,,,0.00,0,Wunderground v.1.15,2013-03-09 11:24:00,
2013-03-09 03:30:00,35.2,32.3,30.10,NW,308,0.0,1.0,89,0.00,,,0.00,0,Wunderground v.1.15,2013-03-09 11:30:00,
2013-03-09 03:36:00,35.1,32.2,30.10,NW,308,0.0,1.0,89,0.00,,,0.00,0,Wunderground v.1.15,2013-03-09 11:36:00,
2013-03-09 03:42:00,35.0,32.4,30.11,NW,309,0.0,1.0,90,0.00,,,0.00,0,Wunderground v.1.15,2013-03-09 11:42:00,
2013-03-09 03:48:00,34.9,32.3,30.10,NW,309,0.0,1.0,90,0.00,,,0.00,0,Wunderground v.1.15,2013-03-09 11:48:00,
2013-03-09 03:54:00,34.8,32.2,30.10,NW,314,0.0,2.0,90,0.00,,,0.00,0,Wunderground v.1.15,2013-03-09 11:54:00,
2013-03-09 04:00:00,34.7,32.1,30.11,ESE,119,1.0,2.0,90,0.00,,,0.00,0,Wunderground v.1.15,2013-03-09 12:00:00,
2013-03-09 04:06:00,34.6,32.0,30.12,ESE,120,1.0,2.0,90,0.00,,,0.00,0,Wunderground v.1.15,2013-03-09 12:06:00,
2013-03-09 04:12:00,34.6,32.0,30.12,ESE,120,0.0,1.0,90,0.00,,,0.00,0,Wunderground v.1.15,2013-03-09 12:12:00,
2013-03-09 04:18:00,34.6,32.0,30.12,ESE,120,0.0,1.0,90,0.00,,,0.00,0,Wunderground v.1.15,2013-03-09 12:18:00,
2013-03-09 04:24:00,34.6,32.2,30.12,ESE,120,0.0,1.0,91,0.00,,,0.00,0,Wunderground v.1.15,2013-03-09 12:24:00,
2013-03-09 04:30:00,34.7,32.3,30.13,ESE,120,0.0,1.0,91,0.00,,,0.00,0,Wunderground v.1.15,2013-03-09 12:30:00,
2013-03-09 04:36:00,34.8,32.4,30.14,ESE,120,0.0,1.0,91,0.00,,,0.00,0,Wunderground v.1.15,2013-03-09 12:36:00,
2013-03-09 04:42:00,34.7,32.3,30.15,ESE,120,0.0,1.0,91,0.00,,,0.00,0,Wunderground v.1.15,2013-03-09 12:42:00,
2013-03-09 04:48:00,34.6,32.2,30.15,ESE,120,0.0,2.0,91,0.00,,,0.00,0,Wunderground v.1.15,2013-03-09 12:48:00,
2013-03-09 04:54:00,34.4,32.0,30.16,ESE,120,0.0,1.0,91,0.00,,,0.00,0,Wunderground v.1.15,2013-03-09 12:54:00,
2013-03-09 05:00:00,34.4,32.0,30.17,ESE,120,0.0,2.0,91,0.00,,,0.00,0,Wunderground v.1.15,2013-03-09 13:00:00,
2013-03-09 05:06:00,34.4,32.0,30.18,ESE,120,1.0,3.0,91,0.00,,,0.00,0,Wunderground v.1.15,2013-03-09 13:06:00,
2013-03-09 05:12:00,34.4,32.0,30.18,SE,127,1.0,2.0,91,0.00,,,0.00,0,Wunderground v.1.15,2013-03-09 13:12:00,
2013-03-09 05:18:00,34.4,32.0,30.18,SE,127,1.0,2.0,91,0.00,,,0.00,0,Wunderground v.1.15,2013-03-09 13:18:00,
2013-03-09 05:24:00,34.4,32.0,30.19,SE,127,0.0,2.0,91,0.00,,,0.00,0,Wunderground v.1.15,2013-03-09 13:24:00,
2013-03-09 05:30:00,34.5,32.4,30.19,SE,127,0.0,2.0,92,0.00,,,0.00,0,Wunderground v.1.15,2013-03-09 13:30:00,
2013-03-09 05:36:00,34.6,32.5,30.19,SE,128,0.0,2.0,92,0.00,,,0.00,0,Wunderground v.1.15,2013-03-09 13:36:00,
2013-03-09 05:42:00,34.7,32.6,30.20,SE,128,0.0,2.0,92,0.00,,,0.00,0,Wunderground v.1.15,2013-03-09 13:42:00,
2013-03-09 05:48:00,34.7,32.6,30.20,SE,128,0.0,2.0,92,0.00,,,0.00,0,Wunderground v.1.15,2013-03-09 13:48:00,
2013-03-09 05:54:00,34.6,32.5,30.21,SE,128,0.0,2.0,92,0.00,,,0.00,0,Wunderground v.1.15,2013-03-09 13:54:00,
2013-03-09 06:00:00,34.6,32.5,30.21,SE,128,0.0,4.0,92,0.00,,,0.00,0,Wunderground v.1.15,2013-03-09 14:00:00,
2013-03-09 06:06:00,34.5,32.4,30.21,SE,128,0.0,4.0,92,0.00,,,0.00,0,Wunderground v.1.15,2013-03-09 14:06:00,
2013-03-09 06:12:00,34.3,32.2,30.22,SE,128,0.0,4.0,92,0.00,,,0.00,0,Wunderground v.1.15,2013-03-09 14:12:00,
2013-03-09 06:18:00,34.2,31.8,30.22,SE,128,0.0,4.0,91,0.00,,,0.00,0,Wunderground v.1.15,2013-03-09 14:18:00,
2013-03-09 06:24:00,34.1,32.0,30.22,SE,128,0.0,4.0,92,0.00,,,0.00,0,Wunderground v.1.15,2013-03-09 14:24:00,
2013-03-09 06:30:00,34.0,31.9,30.23,SE,128,0.0,4.0,92,0.00,,,0.00,0,Wunderground v.1.15,2013-03-09 14:30:00,
2013-03-09 06:36:00,34.0,31.9,30.22,SE,128,0.0,4.0,92,0.00,,,0.00,7,Wunderground v.1.15,2013-03-09 14:36:00,
2013-03-09 06:42:00,34.0,31.9,30.23,SE,128,0.0,4.0,92,0.00,,,0.00,11,Wunderground v.1.15,2013-03-09 14:42:00,
2013-03-09 06:48:00,33.9,31.8,30.23,SE,128,0.0,4.0,92,0.00,,,0.00,14,Wunderground v.1.15,2013-03-09 14:48:00,
2013-03-09 06:54:00,33.9,31.8,30.24,SE,128,0.0,4.0,92,0.00,,,0.00,16,Wunderground v.1.15,2013-03-09 14:54:00,
2013-03-09 07:00:00,33.9,31.8,30.24,SE,128,0.0,1.0,92,0.00,,,0.00,30,Wunderground v.1.15,2013-03-09 15:00:00,
2013-03-09 07:06:00,34.0,31.9,30.24,SE,128,0.0,1.0,92,0.00,,,0.00,42,Wunderground v.1.15,2013-03-09 15:06:00,
2013-03-09 07:12:00,34.2,32.4,30.24,SE,128,0.0,1.0,93,0.00,,,0.00,56,Wunderground v.1.15,2013-03-09 15:12:00,
2013-03-09 07:18:00,34.4,32.3,30.24,SE,128,0.0,1.0,92,0.00,,,0.00,74,Wunderground v.1.15,2013-03-09 15:18:00,
2013-03-09 07:24:00,34.7,32.9,30.24,SE,128,0.0,1.0,93,0.00,,,0.00,90,Wunderground v.1.15,2013-03-09 15:24:00,
2013-03-09 07:30:00,35.2,33.4,30.25,SE,128,0.0,1.0,93,0.00,,,0.00,111,Wunderground v.1.15,2013-03-09 15:30:00,
2013-03-09 07:36:00,36.0,34.2,30.25,SE,128,0.0,1.0,93,0.00,,,0.00,128,Wunderground v.1.15,2013-03-09 15:36:00,
2013-03-09 07:42:00,36.7,35.1,30.25,SE,128,0.0,1.0,94,0.00,,,0.00,155,Wunderground v.1.15,2013-03-09 15:42:00,
2013-03-09 07:48:00,37.8,36.2,30.25,SE,128,0.0,1.0,94,0.00,,,0.00,176,Wunderground v.1.15,2013-03-09 15:48:00,
2013-03-09 07:54:00,38.7,37.1,30.26,SE,128,0.0,1.0,94,0.00,,,0.00,197,Wunderground v.1.15,2013-03-09 15:54:00,
2013-03-09 08:00:00,39.2,37.6,30.26,SE,128,0.0,1.0,94,0.00,,,0.00,218,Wunderground v.1.15,2013-03-09 16:00:00,
2013-03-09 08:06:00,40.0,38.4,30.26,SE,128,0.0,1.0,94,0.00,,,0.00,236,Wunderground v.1.15,2013-03-09 16:06:00,
2013-03-09 08:12:00,40.7,39.1,30.26,SE,128,0.0,1.0,94,0.00,,,0.00,251,Wunderground v.1.15,2013-03-09 16:12:00,
2013-03-09 08:18:00,41.8,40.2,30.26,ENE,58,0.0,3.0,94,0.00,,,0.00,271,Wunderground v.1.15,2013-03-09 16:18:00,
2013-03-09 08:24:00,42.5,40.6,30.26,North,360,1.0,2.0,93,0.00,,,0.00,290,Wunderground v.1.15,2013-03-09 16:24:00,
2013-03-09 08:30:00,43.4,41.2,30.26,North,355,2.0,2.0,92,0.00,,,0.00,311,Wunderground v.1.15,2013-03-09 16:30:00,
2013-03-09 08:36:00,44.3,41.6,30.26,North,355,1.0,2.0,90,0.00,,,0.00,334,Wunderground v.1.15,2013-03-09 16:36:00,
2013-03-09 08:42:00,45.3,41.1,30.26,WNW,301,2.0,3.0,85,0.00,,,0.00,360,Wunderground v.1.15,2013-03-09 16:42:00,
2013-03-09 08:48:00,46.3,41.1,30.27,NW,321,3.0,3.0,82,0.00,,,0.00,381,Wunderground v.1.15,2013-03-09 16:48:00,
2013-03-09 08:54:00,47.2,40.7,30.26,NNW,329,2.0,3.0,78,0.00,,,0.00,401,Wunderground v.1.15,2013-03-09 16:54:00,
2013-03-09 09:00:00,48.1,40.5,30.26,WNW,303,2.0,2.0,75,0.00,,,0.00,424,Wunderground v.1.15,2013-03-09 17:00:00,
2013-03-09 09:06:00,48.9,40.6,30.27,WNW,302,1.0,6.0,73,0.00,,,0.00,443,Wunderground v.1.15,2013-03-09 17:06:00,
2013-03-09 09:12:00,49.6,40.2,30.27,NW,321,3.0,6.0,70,0.00,,,0.00,462,Wunderground v.1.15,2013-03-09 17:12:00,
2013-03-09 09:18:00,50.4,40.6,30.27,NW,324,3.0,6.0,69,0.00,,,0.00,478,Wunderground v.1.15,2013-03-09 17:18:00,
2013-03-09 09:24:00,51.2,40.6,30.27,NNW,338,2.0,6.0,67,0.00,,,0.00,496,Wunderground v.1.15,2013-03-09 17:24:00,
2013-03-09 09:30:00,52.2,40.8,30.27,NW,314,2.0,2.0,65,0.00,,,0.00,513,Wunderground v.1.15,2013-03-09 17:30:00,
2013-03-09 09:36:00,52.8,41.0,30.27,NW,319,1.0,6.0,64,0.00,,,0.00,531,Wunderground v.1.15,2013-03-09 17:36:00,
2013-03-09 09:42:00,53.6,41.7,30.27,WNW,285,1.0,6.0,64,0.00,,,0.00,548,Wunderground v.1.15,2013-03-09 17:42:00,
2013-03-09 09:48:00,54.4,41.2,30.27,NW,312,1.0,6.0,61,0.00,,,0.00,563,Wunderground v.1.15,2013-03-09 17:48:00,
2013-03-09 09:54:00,55.2,40.7,30.27,NNW,327,2.0,6.0,58,0.00,,,0.00,578,Wunderground v.1.15,2013-03-09 17:54:00,
2013-03-09 10:00:00,56.1,40.6,30.27,NW,311,2.0,2.0,56,0.00,,,0.00,594,Wunderground v.1.15,2013-03-09 18:00:00,
2013-03-09 10:06:00,57.3,39.8,30.27,NW,323,2.0,6.0,52,0.00,,,0.00,608,Wunderground v.1.15,2013-03-09 18:06:00,
2013-03-09 10:12:00,58.0,40.0,30.27,NNW,334,3.0,6.0,51,0.00,,,0.00,622,Wunderground v.1.15,2013-03-09 18:12:00,
2013-03-09 10:18:00,58.9,39.2,30.28,NNW,329,3.0,6.0,48,0.00,,,0.00,635,Wunderground v.1.15,2013-03-09 18:18:00,
2013-03-09 10:24:00,59.8,40.6,30.28,WNW,292,2.0,6.0,49,0.00,,,0.00,647,Wunderground v.1.15,2013-03-09 18:24:00,
2013-03-09 10:30:00,60.4,40.1,30.28,NNW,340,3.0,3.0,47,0.00,,,0.00,659,Wunderground v.1.15,2013-03-09 18:30:00,
2013-03-09 10:36:00,60.7,40.3,30.28,NW,319,4.0,7.0,47,0.00,,,0.00,670,Wunderground v.1.15,2013-03-09 18:36:00,
2013-03-09 10:42:00,60.7,39.8,30.28,WNW,295,4.0,7.0,46,0.00,,,0.00,684,Wunderground v.1.15,2013-03-09 18:42:00,
2013-03-09 10:48:00,61.0,40.6,30.28,NNW,327,4.0,11.0,47,0.00,,,0.00,691,Wunderground v.1.15,2013-03-09 18:48:00,
2013-03-09 10:54:00,60.9,40.5,30.28,NW,314,6.0,6.0,47,0.00,,,0.00,701,Wunderground v.1.15,2013-03-09 18:54:00,
2013-03-09 11:00:00,60.8,39.9,30.28,WNW,300,5.0,14.0,46,0.00,,,0.00,712,Wunderground v.1.15,2013-03-09 19:00:00,
2013-03-09 11:06:00,60.9,40.5,30.28,West,273,5.0,14.0,47,0.00,,,0.00,719,Wunderground v.1.15,2013-03-09 19:06:00,
2013-03-09 11:12:00,61.2,40.8,30.29,West,273,3.0,14.0,47,0.00,,,0.00,722,Wunderground v.1.15,2013-03-09 19:12:00,
2013-03-09 11:17:00,61.4,40.4,30.28,West,267,4.0,14.0,46,0.00,,,0.00,733,Wunderground v.1.15,2013-03-09 19:17:00,
2013-03-09 11:24:00,61.5,39.9,30.28,WNW,291,6.0,14.0,45,0.00,,,0.00,740,Wunderground v.1.15,2013-03-09 19:24:00,
2013-03-09 11:30:00,61.9,40.9,30.28,NW,323,6.0,6.0,46,0.00,,,0.00,745,Wunderground v.1.15,2013-03-09 19:30:00,
2013-03-09 11:36:00,62.3,40.7,30.28,WNW,291,5.0,14.0,45,0.00,,,0.00,752,Wunderground v.1.15,2013-03-09 19:36:00,
2013-03-09 11:42:00,62.8,40.5,30.28,NW,319,5.0,14.0,44,0.00,,,0.00,758,Wunderground v.1.15,2013-03-09 19:42:00,
2013-03-09 11:48:00,63.4,39.9,30.28,West,264,5.0,14.0,42,0.00,,,0.00,763,Wunderground v.1.15,2013-03-09 19:48:00,
2013-03-09 11:54:00,63.7,38.9,30.28,WNW,292,6.0,14.0,40,0.00,,,0.00,768,Wunderground v.1.15,2013-03-09 19:54:00,
2013-03-09 12:00:00,64.1,39.3,30.28,WNW,303,7.0,7.0,40,0.00,,,0.00,770,Wunderground v.1.15,2013-03-09 20:00:00,
2013-03-09 12:06:00,64.7,38.5,30.28,NNW,336,6.0,14.0,38,0.00,,,0.00,773,Wunderground v.1.15,2013-03-09 20:06:00,
2013-03-09 12:12:00,65.6,38.6,30.27,West,272,5.0,14.0,37,0.00,,,0.00,775,Wunderground v.1.15,2013-03-09 20:12:00,
2013-03-09 12:18:00,66.1,37.6,30.27,SW,225,4.0,14.0,35,0.00,,,0.00,777,Wunderground v.1.15,2013-03-09 20:18:00,
2013-03-09 12:24:00,66.7,37.4,30.27,WNW,286,5.0,14.0,34,0.00,,,0.00,777,Wunderground v.1.15,2013-03-09 20:24:00,
2013-03-09 12:30:00,67.3,36.4,30.27,West,262,4.0,14.0,32,0.00,,,0.00,775,Wunderground v.1.15,2013-03-09 20:30:00,
2013-03-09 12:36:00,67.6,35.0,30.27,NW,321,4.0,14.0,30,0.00,,,0.00,773,Wunderground v.1.15,2013-03-09 20:36:00,
2013-03-09 12:42:00,67.8,33.5,30.27,North,351,4.0,14.0,28,0.00,,,0.00,773,Wunderground v.1.15,2013-03-09 20:42:00,
2013-03-09 12:48:00,67.9,31.7,30.27,NNE,19,5.0,14.0,26,0.00,,,0.00,773,Wunderground v.1.15,2013-03-09 20:48:00,
2013-03-09 12:54:00,68.0,31.8,30.27,North,355,4.0,14.0,26,0.00,,,0.00,770,Wunderground v.1.15,2013-03-09 20:54:00,
2013-03-09 13:00:00,68.4,31.2,30.27,NNW,340,5.0,5.0,25,0.00,,,0.00,766,Wunderground v.1.15,2013-03-09 21:00:00,
2013-03-09 13:06:00,68.7,31.4,30.26,NNW,338,6.0,12.0,25,0.00,,,0.00,766,Wunderground v.1.15,2013-03-09 21:06:00,
2013-03-09 13:12:00,68.9,31.6,30.27,NNW,344,7.0,12.0,25,0.00,,,0.00,761,Wunderground v.1.15,2013-03-09 21:12:00,
2013-03-09 13:18:00,69.4,31.0,30.26,NNW,341,6.0,12.0,24,0.00,,,0.00,758,Wunderground v.1.15,2013-03-09 21:18:00,
2013-03-09 13:24:00,69.4,30.0,30.26,WNW,289,7.0,12.0,23,0.00,,,0.00,749,Wunderground v.1.15,2013-03-09 21:24:00,
2013-03-09 13:30:00,69.8,30.3,30.26,NNW,348,6.0,12.0,23,0.00,,,0.00,744,Wunderground v.1.15,2013-03-09 21:30:00,
2013-03-09 13:36:00,69.9,30.4,30.27,NNW,329,7.0,13.0,23,0.00,,,0.00,735,Wunderground v.1.15,2013-03-09 21:36:00,
2013-03-09 13:42:00,70.1,35.5,30.26,NNW,327,6.0,12.0,28,0.00,,,0.00,728,Wunderground v.1.15,2013-03-09 21:42:00,
2013-03-09 13:48:00,70.4,33.9,30.27,NW,316,5.0,12.0,26,0.00,,,0.00,721,Wunderground v.1.15,2013-03-09 21:48:00,
2013-03-09 13:54:00,70.4,28.6,30.27,SSE,161,5.0,12.0,21,0.00,,,0.00,710,Wunderground v.1.15,2013-03-09 21:54:00,
2013-03-09 14:00:00,70.6,43.1,30.27,SW,218,4.0,17.0,37,0.00,,,0.00,696,Wunderground v.1.15,2013-03-09 22:00:00,
2013-03-09 14:06:00,70.2,43.4,30.27,SW,216,4.0,17.0,38,0.00,,,0.00,684,Wunderground v.1.15,2013-03-09 22:06:00,
2013-03-09 14:12:00,70.2,44.7,30.27,West,271,3.0,11.0,40,0.00,,,0.00,679,Wunderground v.1.15,2013-03-09 22:12:00,
2013-03-09 14:18:00,69.7,44.3,30.27,WSW,240,5.0,17.0,40,0.00,,,0.00,666,Wunderground v.1.15,2013-03-09 22:18:00,
2013-03-09 14:24:00,69.4,44.7,30.27,WNW,302,5.0,17.0,41,0.00,,,0.00,652,Wunderground v.1.15,2013-03-09 22:24:00,
2013-03-09 14:30:00,69.2,43.8,30.27,WSW,250,5.0,5.0,40,0.00,,,0.00,642,Wunderground v.1.15,2013-03-09 22:30:00,
2013-03-09 14:36:00,68.9,44.2,30.26,West,271,6.0,17.0,41,0.00,,,0.00,629,Wunderground v.1.15,2013-03-09 22:36:00,
2013-03-09 14:42:00,69.0,43.7,30.26,WSW,250,6.0,17.0,40,0.00,,,0.00,610,Wunderground v.1.15,2013-03-09 22:42:00,
2013-03-09 14:48:00,68.8,44.1,30.26,West,263,6.0,17.0,41,0.00,,,0.00,596,Wunderground v.1.15,2013-03-09 22:48:00,
2013-03-09 14:54:00,68.7,44.0,30.26,SW,229,5.0,17.0,41,0.00,,,0.00,584,Wunderground v.1.15,2013-03-09 22:54:00,
2013-03-09 15:00:00,68.9,44.2,30.26,WNW,291,4.0,14.0,41,0.00,,,0.00,571,Wunderground v.1.15,2013-03-09 23:00:00,
2013-03-09 15:06:00,69.3,43.9,30.26,WSW,254,4.0,14.0,40,0.00,,,0.00,561,Wunderground v.1.15,2013-03-09 23:06:00,
2013-03-09 15:12:00,69.7,43.6,30.26,WSW,252,3.0,4.0,39,0.00,,,0.00,543,Wunderground v.1.15,2013-03-09 23:12:00,
2013-03-09 15:18:00,69.8,41.6,30.25,WNW,291,4.0,14.0,36,0.00,,,0.00,529,Wunderground v.1.15,2013-03-09 23:18:00,
2013-03-09 15:24:00,69.8,38.6,30.26,WNW,283,6.0,14.0,32,0.00,,,0.00,510,Wunderground v.1.15,2013-03-09 23:24:00,
2013-03-09 15:30:00,69.8,38.6,30.25,West,279,6.0,6.0,32,0.00,,,0.00,494,Wunderground v.1.15,2013-03-09 23:30:00,
2013-03-09 15:35:00,70.2,38.1,30.26,WNW,289,4.0,14.0,31,0.00,,,0.00,476,Wunderground v.1.15,2013-03-09 23:35:00,
2013-03-09 15:41:00,70.8,41.0,30.26,NW,317,3.0,14.0,34,0.00,,,0.00,457,Wunderground v.1.15,2013-03-09 23:41:00,
2013-03-09 15:48:00,70.4,45.6,30.26,WSW,244,4.0,14.0,41,0.00,,,0.00,439,Wunderground v.1.15,2013-03-09 23:48:00,
2013-03-09 15:54:00,69.9,43.8,30.26,WSW,241,4.0,14.0,39,0.00,,,0.00,420,Wunderground v.1.15,2013-03-09 23:54:00,
2013-03-09 16:00:00,69.6,44.8,30.26,SSW,194,3.0,12.0,41,0.00,,,0.00,401,Wunderground v.1.15,2013-03-10 00:00:00,
2013-03-09 16:06:00,68.9,44.9,30.26,WSW,248,4.0,12.0,42,0.00,,,0.00,380,Wunderground v.1.15,2013-03-10 00:06:00,
2013-03-09 16:12:00,68.5,45.1,30.26,SW,232,3.0,12.0,43,0.00,,,0.00,362,Wunderground v.1.15,2013-03-10 00:12:00,
2013-03-09 16:17:00,68.4,44.4,30.26,SSW,211,3.0,12.0,42,0.00,,,0.00,341,Wunderground v.1.15,2013-03-10 00:17:00,
2013-03-09 16:24:00,68.4,43.8,30.25,WSW,257,2.0,12.0,41,0.00,,,0.00,320,Wunderground v.1.15,2013-03-10 00:24:00,
2013-03-09 16:30:00,68.6,43.9,30.26,NW,319,1.0,1.0,41,0.00,,,0.00,299,Wunderground v.1.15,2013-03-10 00:30:00,
2013-03-09 16:36:00,68.7,44.7,30.26,NW,310,1.0,12.0,42,0.00,,,0.00,279,Wunderground v.1.15,2013-03-10 00:36:00,
2013-03-09 16:42:00,68.7,43.4,30.26,WSW,258,1.0,3.0,40,0.00,,,0.00,251,Wunderground v.1.15,2013-03-10 00:42:00,
2013-03-09 16:48:00,68.6,43.9,30.26,NW,320,1.0,12.0,41,0.00,,,0.00,227,Wunderground v.1.15,2013-03-10 00:48:00,
2013-03-09 16:54:00,68.3,44.3,30.26,WSW,251,1.0,12.0,42,0.00,,,0.00,204,Wunderground v.1.15,2013-03-10 00:54:00,
2013-03-09 17:00:00,67.7,45.0,30.26,South,180,2.0,11.0,44,0.00,,,0.00,176,Wunderground v.1.15,2013-03-10 01:00:00,
2013-03-09 17:06:00,66.9,44.9,30.26,SSE,167,1.0,11.0,45,0.00,,,0.00,151,Wunderground v.1.15,2013-03-10 01:06:00,
2013-03-09 17:12:00,66.5,44.5,30.26,SSE,167,1.0,11.0,45,0.00,,,0.00,127,Wunderground v.1.15,2013-03-10 01:12:00,
2013-03-09 17:18:00,66.3,44.9,30.27,SSE,168,0.0,11.0,46,0.00,,,0.00,102,Wunderground v.1.15,2013-03-10 01:18:00,
2013-03-09 17:23:00,66.5,45.1,30.27,SSE,168,0.0,11.0,46,0.00,,,0.00,86,Wunderground v.1.15,2013-03-10 01:23:00,
2013-03-09 17:30:00,66.5,44.5,30.27,SSE,168,0.0,11.0,45,0.00,,,0.00,63,Wunderground v.1.15,2013-03-10 01:30:00,
2013-03-09 17:35:00,66.6,44.0,30.27,SSE,168,0.0,11.0,44,0.00,,,0.00,49,Wunderground v.1.15,2013-03-10 01:35:00,
2013-03-09 17:42:00,66.7,44.7,30.27,SSE,168,0.0,11.0,45,0.00,,,0.00,30,Wunderground v.1.15,2013-03-10 01:42:00,
2013-03-09 17:47:00,66.8,44.8,30.27,SSE,168,0.0,11.0,45,0.00,,,0.00,16,Wunderground v.1.15,2013-03-10 01:47:00,
2013-03-09 17:54:00,66.5,44.5,30.27,SSE,168,0.0,11.0,45,0.00,,,0.00,12,Wunderground v.1.15,2013-03-10 01:54:00,
2013-03-09 18:00:00,66.1,45.3,30.27,SSE,168,0.0,3.0,47,0.00,,,0.00,9,Wunderground v.1.15,2013-03-10 02:00:00,
2013-03-09 18:06:00,65.1,44.4,30.28,SSE,168,0.0,3.0,47,0.00,,,0.00,5,Wunderground v.1.15,2013-03-10 02:06:00,
2013-03-09 18:12:00,64.0,43.9,30.28,SSE,168,0.0,3.0,48,0.00,,,0.00,0,Wunderground v.1.15,2013-03-10 02:12:00,
2013-03-09 18:18:00,63.0,44.1,30.28,SSE,168,0.0,3.0,50,0.00,,,0.00,0,Wunderground v.1.15,2013-03-10 02:18:00,
2013-03-09 18:24:00,62.0,44.7,30.28,SSE,168,0.0,3.0,53,0.00,,,0.00,0,Wunderground v.1.15,2013-03-10 02:24:00,
2013-03-09 18:30:00,61.2,43.9,30.28,SSE,168,0.0,3.0,53,0.00,,,0.00,0,Wunderground v.1.15,2013-03-10 02:30:00,
2013-03-09 18:36:00,60.7,44.4,30.28,SSE,168,0.0,3.0,55,0.00,,,0.00,0,Wunderground v.1.15,2013-03-10 02:36:00,
2013-03-09 18:42:00,59.7,44.4,30.28,SSE,168,0.0,3.0,57,0.00,,,0.00,0,Wunderground v.1.15,2013-03-10 02:42:00,
2013-03-09 18:47:00,58.8,44.0,30.28,SSE,168,0.0,3.0,58,0.00,,,0.00,0,Wunderground v.1.15,2013-03-10 02:47:00,
2013-03-09 18:53:00,57.8,44.0,30.29,South,169,0.0,3.0,60,0.00,,,0.00,0,Wunderground v.1.15,2013-03-10 02:53:00,
2013-03-09 19:00:00,56.9,43.6,30.29,South,169,0.0,1.0,61,0.00,,,0.00,0,Wunderground v.1.15,2013-03-10 03:00:00,
2013-03-09 19:06:00,56.2,43.3,30.29,South,170,0.0,2.0,62,0.00,,,0.00,0,Wunderground v.1.15,2013-03-10 03:06:00,
2013-03-09 19:12:00,55.6,43.6,30.29,South,170,1.0,1.0,64,0.00,,,0.00,0,Wunderground v.1.15,2013-03-10 03:12:00,
2013-03-09 19:17:00,55.1,43.5,30.29,South,170,0.0,1.0,65,0.00,,,0.00,0,Wunderground v.1.15,2013-03-10 03:17:00,
2013-03-09 19:24:00,54.7,43.6,30.30,South,170,0.0,1.0,66,0.00,,,0.00,0,Wunderground v.1.15,2013-03-10 03:24:00,
2013-03-09 19:30:00,54.3,43.2,30.30,South,170,0.0,1.0,66,0.00,,,0.00,0,Wunderground v.1.15,2013-03-10 03:30:00,
2013-03-09 19:35:00,53.9,43.2,30.30,South,170,0.0,1.0,67,0.00,,,0.00,0,Wunderground v.1.15,2013-03-10 03:35:00,
2013-03-09 19:42:00,53.5,42.8,30.30,South,170,0.0,1.0,67,0.00,,,0.00,0,Wunderground v.1.15,2013-03-10 03:42:00,
2013-03-09 19:48:00,53.2,42.9,30.30,South,170,0.0,1.0,68,0.00,,,0.00,0,Wunderground v.1.15,2013-03-10 03:48:00,
2013-03-09 19:54:00,52.7,42.4,30.31,South,170,0.0,1.0,68,0.00,,,0.00,0,Wunderground v.1.15,2013-03-10 03:54:00,
2013-03-09 20:00:00,52.3,42.4,30.31,South,170,0.0,2.0,69,0.00,,,0.00,0,Wunderground v.1.15,2013-03-10 04:00:00,
2013-03-09 20:06:00,51.8,42.3,30.31,South,170,0.0,2.0,70,0.00,,,0.00,0,Wunderground v.1.15,2013-03-10 04:06:00,
2013-03-09 20:12:00,51.3,41.8,30.31,South,170,0.0,2.0,70,0.00,,,0.00,0,Wunderground v.1.15,2013-03-10 04:12:00,
2013-03-09 20:18:00,50.8,41.7,30.31,South,170,0.0,2.0,71,0.00,,,0.00,0,Wunderground v.1.15,2013-03-10 04:18:00,
2013-03-09 20:24:00,50.3,41.6,30.31,South,170,0.0,2.0,72,0.00,,,0.00,0,Wunderground v.1.15,2013-03-10 04:24:00,
2013-03-09 20:30:00,49.9,41.6,30.31,South,170,0.0,2.0,73,0.00,,,0.00,0,Wunderground v.1.15,2013-03-10 04:30:00,
2013-03-09 20:36:00,49.6,41.3,30.31,South,170,0.0,2.0,73,0.00,,,0.00,0,Wunderground v.1.15,2013-03-10 04:36:00,
2013-03-09 20:42:00,49.3,41.4,30.31,South,170,0.0,2.0,74,0.00,,,0.00,0,Wunderground v.1.15,2013-03-10 04:42:00,
2013-03-09 20:48:00,49.0,41.1,30.31,South,170,0.0,2.0,74,0.00,,,0.00,0,Wunderground v.1.15,2013-03-10 04:48:00,
2013-03-09 20:54:00,48.6,41.0,30.31,South,170,0.0,2.0,75,0.00,,,0.00,0,Wunderground v.1.15,2013-03-10 04:54:00,
2013-03-09 21:00:00,48.3,40.7,30.31,South,170,0.0,2.0,75,0.00,,,0.00,0,Wunderground v.1.15,2013-03-10 05:00:00,
2013-03-09 21:03:00,48.1,40.5,30.32,South,170,0.0,2.0,75,0.00,,,0.00,0,Wunderground v.1.15,2013-03-10 05:03:00,
2013-03-09 21:09:00,47.8,40.6,30.32,South,170,0.0,2.0,76,0.00,,,0.00,0,Wunderground v.1.15,2013-03-10 05:09:00,
2013-03-09 21:12:00,47.6,40.4,30.32,South,170,0.0,2.0,76,0.00,,,0.00,0,Wunderground v.1.15,2013-03-10 05:12:00,
2013-03-09 21:16:00,47.4,40.6,30.32,South,170,0.0,2.0,77,0.00,,,0.00,0,Wunderground v.1.15,2013-03-10 05:16:00,
2013-03-09 21:22:00,47.0,40.5,30.33,South,170,0.0,2.0,78,0.00,,,0.00,0,Wunderground v.1.15,2013-03-10 05:22:00,
2013-03-09 21:28:00,46.8,40.3,30.33,South,170,0.0,2.0,78,0.00,,,0.00,0,Wunderground v.1.15,2013-03-10 05:28:00,
2013-03-09 21:34:00,46.6,40.1,30.33,South,170,0.0,2.0,78,0.00,,,0.00,0,Wunderground v.1.15,2013-03-10 05:34:00,
2013-03-09 21:40:00,46.3,39.8,30.33,South,170,0.0,2.0,78,0.00,,,0.00,0,Wunderground v.1.15,2013-03-10 05:40:00,
2013-03-09 21:45:00,46.0,39.5,30.33,South,170,0.0,2.0,78,0.00,,,0.00,0,Wunderground v.1.15,2013-03-10 05:45:00,
2013-03-09 21:51:00,45.7,39.6,30.33,South,170,0.0,2.0,79,0.00,,,0.00,0,Wunderground v.1.15,2013-03-10 05:51:00,
2013-03-09 21:57:00,45.4,39.6,30.33,South,170,0.0,2.0,80,0.00,,,0.00,0,Wunderground v.1.15,2013-03-10 05:57:00,
2013-03-09 22:04:00,45.2,39.4,30.33,South,170,0.0,1.0,80,0.00,,,0.00,0,Wunderground v.1.15,2013-03-10 06:04:00,
2013-03-09 22:10:00,44.9,39.4,30.33,South,170,0.0,1.0,81,0.00,,,0.00,0,Wunderground v.1.15,2013-03-10 06:10:00,
2013-03-09 22:16:00,44.7,39.2,30.33,South,170,0.0,1.0,81,0.00,,,0.00,0,Wunderground v.1.15,2013-03-10 06:16:00,
2013-03-09 22:22:00,44.5,39.3,30.33,South,170,0.0,1.0,82,0.00,,,0.00,0,Wunderground v.1.15,2013-03-10 06:22:00,
2013-03-09 22:28:00,44.3,39.2,30.33,South,170,0.0,1.0,82,0.00,,,0.00,0,Wunderground v.1.15,2013-03-10 06:28:00,
2013-03-09 22:34:00,44.1,39.0,30.33,South,170,0.0,1.0,82,0.00,,,0.00,0,Wunderground v.1.15,2013-03-10 06:34:00,
2013-03-09 22:40:00,43.9,38.8,30.33,South,170,0.0,1.0,82,0.00,,,0.00,0,Wunderground v.1.15,2013-03-10 06:40:00,
2013-03-09 22:45:00,43.7,38.9,30.33,South,170,0.0,1.0,83,0.00,,,0.00,0,Wunderground v.1.15,2013-03-10 06:45:00,
2013-03-09 22:52:00,43.5,38.7,30.33,South,170,0.0,1.0,83,0.00,,,0.00,0,Wunderground v.1.15,2013-03-10 06:52:00,
2013-03-09 22:58:00,43.3,38.5,30.32,South,170,0.0,1.0,83,0.00,,,0.00,0,Wunderground v.1.15,2013-03-10 06:58:00,
2013-03-09 23:04:00,43.2,38.4,30.32,South,170,0.0,1.0,83,0.00,,,0.00,0,Wunderground v.1.15,2013-03-10 07:04:00,
2013-03-09 23:10:00,43.2,38.7,30.32,South,170,0.0,1.0,84,0.00,,,0.00,0,Wunderground v.1.15,2013-03-10 07:10:00,
2013-03-09 23:15:00,43.2,38.7,30.33,South,170,0.0,1.0,84,0.00,,,0.00,0,Wunderground v.1.15,2013-03-10 07:15:00,
2013-03-09 23:21:00,43.1,38.6,30.33,South,170,0.0,1.0,84,0.00,,,0.00,0,Wunderground v.1.15,2013-03-10 07:21:00,
2013-03-09 23:27:00,42.8,38.3,30.34,South,170,1.0,2.0,84,0.00,,,0.00,0,Wunderground v.1.15,2013-03-10 07:27:00,
2013-03-09 23:33:00,42.5,38.0,30.34,South,170,1.0,2.0,84,0.00,,,0.00,0,Wunderground v.1.15,2013-03-10 07:33:00,
2013-03-09 23:40:00,42.6,38.4,30.33,SW,225,1.0,1.0,85,0.00,,,0.00,0,Wunderground v.1.15,2013-03-10 07:40:00,
2013-03-09 23:45:00,42.7,38.5,30.33,SW,226,1.0,1.0,85,0.00,,,0.00,0,Wunderground v.1.15,2013-03-10 07:45:00,
2013-03-09 23:52:00,42.6,38.1,30.33,SW,226,0.0,1.0,84,0.00,,,0.00,0,Wunderground v.1.15,2013-03-10 07:52:00,
2013-03-09 23:58:00,42.5,38.0,30.32,SW,226,0.0,1.0,84,0.00,,,0.00,0,Wunderground v.1.15,2013-03-10 07:58:00,